createdAt,value
2023-05-15T00:01:01.877Z,173.53
2023-05-15T00:03:29.821Z,166.48
2023-05-15T00:05:57.712Z,188.45
2023-05-15T00:08:25.358Z,190.89
2023-05-15T00:11:00.885Z,174.21
2023-05-15T00:13:31.572Z,191.43
2023-05-15T00:15:59.249Z,194.73
2023-05-15T00:18:26.917Z,190.70
2023-05-15T00:20:54.657Z,194.40
2023-05-15T00:23:22.423Z,185.34
2023-05-15T00:25:50.369Z,176.10
2023-05-15T00:28:18.039Z,163.34
2023-05-15T00:30:47.075Z,152.18
2023-05-15T00:33:14.723Z,111.51
2023-05-15T00:35:42.477Z,131.65
2023-05-15T00:38:11.582Z,123.94
2023-05-15T00:40:41.942Z,118.79
2023-05-15T00:43:11.152Z,101.43
2023-05-15T00:45:39.759Z,99.34
2023-05-15T00:48:10.005Z,93.11
2023-05-15T00:50:39.790Z,108.51
2023-05-15T00:53:07.716Z,110.91
2023-05-15T00:55:37.344Z,142.99
2023-05-15T00:58:05.234Z,197.85
2023-05-15T01:00:33.772Z,310.02
2023-05-15T01:03:01.633Z,276.82
2023-05-15T01:05:30.974Z,209.70
2023-05-15T01:08:13.501Z,131.62
2023-05-15T01:10:43.232Z,137.28
2023-05-15T01:13:14.381Z,144.47
2023-05-15T01:15:43.370Z,141.29
2023-05-15T01:18:11.140Z,119.73
2023-05-15T01:20:55.279Z,107.42
2023-05-15T01:23:45.734Z,108.43
2023-05-15T01:26:54.505Z,112.44
2023-05-15T01:29:30.502Z,129.11
2023-05-15T01:32:04.886Z,142.29
2023-05-15T01:34:44.468Z,165.07
2023-05-15T01:37:16.286Z,285.93
2023-05-15T01:39:49.698Z,362.87
2023-05-15T01:42:20.509Z,248.02
2023-05-15T01:44:55.339Z,237.51
2023-05-15T01:47:33.242Z,237.32
2023-05-15T01:50:03.996Z,202.32
2023-05-15T01:52:34.850Z,194.01
2023-05-15T01:55:05.340Z,185.19
2023-05-15T01:57:35.662Z,358.40
2023-05-15T02:00:08.334Z,279.58
2023-05-15T02:02:37.840Z,295.09
2023-05-15T02:05:07.405Z,247.28
2023-05-15T02:07:35.646Z,182.48
2023-05-15T02:10:04.127Z,142.34
2023-05-15T02:12:35.019Z,178.39
2023-05-15T02:15:06.367Z,158.07
2023-05-15T02:17:34.525Z,215.49
2023-05-15T02:20:02.222Z,178.46
2023-05-15T02:22:29.878Z,183.26
2023-05-15T02:24:57.600Z,164.40
2023-05-15T02:27:27.748Z,167.29
2023-05-15T02:30:15.863Z,166.40
2023-05-15T02:32:56.182Z,179.33
2023-05-15T02:35:34.860Z,218.88
2023-05-15T02:38:08.978Z,264.42
2023-05-15T02:40:37.771Z,235.77
2023-05-15T02:43:07.372Z,253.71
2023-05-15T02:45:37.593Z,236.24
2023-05-15T02:48:06.658Z,235.32
2023-05-15T02:50:34.615Z,236.43
2023-05-15T02:53:03.163Z,417.80
2023-05-15T02:55:30.832Z,262.53
2023-05-15T02:57:58.919Z,257.41
2023-05-15T03:00:26.613Z,250.44
2023-05-15T03:02:55.758Z,242.27
2023-05-15T03:05:23.822Z,261.23
2023-05-15T03:07:51.607Z,228.98
2023-05-15T03:10:19.361Z,229.55
2023-05-15T03:12:47.462Z,213.42
2023-05-15T03:15:15.134Z,220.56
2023-05-15T03:17:42.809Z,203.60
2023-05-15T03:20:12.133Z,186.15
2023-05-15T03:22:39.794Z,173.07
2023-05-15T03:25:09.843Z,175.50
2023-05-15T03:27:37.620Z,183.09
2023-05-15T03:30:06.766Z,163.26
2023-05-15T03:32:34.754Z,193.29
2023-05-15T03:35:02.731Z,207.62
2023-05-15T03:37:31.690Z,248.04
2023-05-15T03:39:59.363Z,227.72
2023-05-15T03:42:27.051Z,225.74
2023-05-15T03:44:54.641Z,297.34
2023-05-15T03:47:22.655Z,243.79
2023-05-15T03:49:50.260Z,241.72
2023-05-15T03:52:18.465Z,265.07
2023-05-15T03:54:47.696Z,265.15
2023-05-15T03:57:15.524Z,260.68
2023-05-15T03:59:43.482Z,264.51
2023-05-15T04:02:11.131Z,256.89
2023-05-15T04:04:39.013Z,275.21
2023-05-15T04:07:06.652Z,357.93
2023-05-15T04:09:34.188Z,381.28
2023-05-15T04:12:03.557Z,351.41
2023-05-15T04:14:31.490Z,279.72
2023-05-15T04:16:59.294Z,256.22
2023-05-15T04:19:27.062Z,319.94
2023-05-15T04:21:54.670Z,465.97
2023-05-15T04:24:23.393Z,227.34
2023-05-15T04:26:51.028Z,232.40
2023-05-15T04:29:20.096Z,232.52
2023-05-15T04:31:47.858Z,380.25
2023-05-15T04:34:15.486Z,293.72
2023-05-15T04:36:43.302Z,233.75
2023-05-15T04:39:10.922Z,225.76
2023-05-15T04:41:38.565Z,199.52
2023-05-15T04:44:06.345Z,231.12
2023-05-15T04:46:35.420Z,266.39
2023-05-15T04:49:03.168Z,238.57
2023-05-15T04:51:31.006Z,227.69
2023-05-15T04:53:58.655Z,235.18
2023-05-15T04:56:26.442Z,214.76
2023-05-15T04:58:54.080Z,179.12
2023-05-15T05:01:21.654Z,192.01
2023-05-15T05:03:50.704Z,165.97
2023-05-15T05:06:18.328Z,158.10
2023-05-15T05:08:45.970Z,194.27
2023-05-15T05:11:13.541Z,201.65
2023-05-15T05:13:41.619Z,164.46
2023-05-15T05:16:09.402Z,194.31
2023-05-15T05:18:37.524Z,169.29
2023-05-15T05:21:06.516Z,135.17
2023-05-15T05:23:34.188Z,125.45
2023-05-15T05:26:03.016Z,124.21
2023-05-15T05:28:33.219Z,125.68
2023-05-15T05:31:00.907Z,151.86
2023-05-15T05:33:28.582Z,137.33
2023-05-15T05:35:56.261Z,112.45
2023-05-15T05:38:25.411Z,117.95
2023-05-15T05:40:53.748Z,107.02
2023-05-15T05:43:21.739Z,102.31
2023-05-15T05:45:49.798Z,107.72
2023-05-15T05:48:17.517Z,101.01
2023-05-15T05:50:47.421Z,88.70
2023-05-15T05:53:15.069Z,103.00
2023-05-15T05:55:44.398Z,102.34
2023-05-15T05:58:21.626Z,151.06
2023-05-15T06:00:52.727Z,150.54
2023-05-15T06:03:21.167Z,117.50
2023-05-15T06:05:48.902Z,123.56
2023-05-15T06:08:16.969Z,114.17
2023-05-15T06:10:46.078Z,96.04
2023-05-15T06:13:13.706Z,98.88
2023-05-15T06:15:42.181Z,103.31
2023-05-15T06:18:09.748Z,78.32
2023-05-15T06:20:38.037Z,80.61
2023-05-15T06:23:05.765Z,79.52
2023-05-15T06:25:34.014Z,102.18
2023-05-15T06:28:04.396Z,126.48
2023-05-15T06:30:32.080Z,129.77
2023-05-15T06:33:00.982Z,154.99
2023-05-15T06:35:28.777Z,128.95
2023-05-15T06:37:57.762Z,158.85
2023-05-15T06:40:26.537Z,133.84
2023-05-15T06:42:54.598Z,161.17
2023-05-15T06:45:24.546Z,311.28
2023-05-15T06:47:53.753Z,453.01
2023-05-15T06:50:24.894Z,315.57
2023-05-15T06:52:53.841Z,216.12
2023-05-15T06:55:27.304Z,190.24
2023-05-15T06:57:55.207Z,175.20
2023-05-15T07:00:24.275Z,152.11
2023-05-15T07:02:52.131Z,148.13
2023-05-15T07:05:20.097Z,115.68
2023-05-15T07:07:48.011Z,116.63
2023-05-15T07:10:16.248Z,101.06
2023-05-15T07:12:43.798Z,81.17
2023-05-15T07:15:12.005Z,91.12
2023-05-15T07:17:41.125Z,76.80
2023-05-15T07:20:09.563Z,62.43
2023-05-15T07:22:44.591Z,51.88
2023-05-15T07:25:16.951Z,54.31
2023-05-15T07:27:44.758Z,58.06
2023-05-15T07:30:13.525Z,46.64
2023-05-15T07:32:42.832Z,54.04
2023-05-15T07:35:11.180Z,59.64
2023-05-15T07:37:39.415Z,65.23
2023-05-15T07:40:08.167Z,63.46
2023-05-15T07:42:35.914Z,75.69
2023-05-15T07:45:04.140Z,65.74
2023-05-15T07:47:31.827Z,70.94
2023-05-15T07:50:01.092Z,83.22
2023-05-15T07:52:28.802Z,96.93
2023-05-15T07:54:56.637Z,89.86
2023-05-15T07:57:24.254Z,80.58
2023-05-15T07:59:51.868Z,78.78
2023-05-15T08:02:19.610Z,71.67
2023-05-15T08:04:47.595Z,68.15
2023-05-15T08:07:16.873Z,69.56
2023-05-15T08:09:44.979Z,81.75
2023-05-15T08:12:16.425Z,88.88
2023-05-15T08:14:44.262Z,86.32
2023-05-15T08:17:12.590Z,69.24
2023-05-15T08:19:40.343Z,63.89
2023-05-15T08:22:08.277Z,61.82
2023-05-15T08:24:37.637Z,68.40
2023-05-15T08:27:05.826Z,70.38
2023-05-15T08:29:33.780Z,74.63
2023-05-15T08:32:02.244Z,84.57
2023-05-15T08:34:30.539Z,84.29
2023-05-15T08:36:59.696Z,107.69
2023-05-15T08:39:27.507Z,114.66
2023-05-15T08:42:08.086Z,95.79
2023-05-15T08:44:35.974Z,92.92
2023-05-15T08:47:22.167Z,86.49
2023-05-15T08:49:59.952Z,83.26
2023-05-15T08:52:28.920Z,81.47
2023-05-15T08:54:58.746Z,95.19
2023-05-15T08:57:28.782Z,113.03
2023-05-15T08:59:57.522Z,129.69
2023-05-15T09:02:25.362Z,116.88
2023-05-15T09:04:52.969Z,142.15
2023-05-15T09:07:22.155Z,176.13
2023-05-15T09:09:51.452Z,125.26
2023-05-15T09:12:21.470Z,131.16
2023-05-15T09:14:50.597Z,109.64
2023-05-15T09:17:18.198Z,121.04
2023-05-15T09:19:45.966Z,106.34
2023-05-15T09:22:18.091Z,100.63
2023-05-15T09:24:45.655Z,119.53
2023-05-15T09:27:13.636Z,99.09
2023-05-15T09:29:41.269Z,93.34
2023-05-15T09:32:14.039Z,97.43
2023-05-15T09:34:45.128Z,97.47
2023-05-15T09:37:28.816Z,91.35
2023-05-15T09:40:06.440Z,88.40
2023-05-15T09:42:35.500Z,74.27
2023-05-15T09:45:04.328Z,61.41
2023-05-15T09:47:34.021Z,54.53
2023-05-15T09:50:02.283Z,45.47
2023-05-15T09:52:29.930Z,49.56
2023-05-15T09:54:57.624Z,47.26
2023-05-15T09:57:25.320Z,45.19
2023-05-15T09:59:53.213Z,59.56
2023-05-15T10:02:26.583Z,45.90
2023-05-15T10:04:56.959Z,57.07
2023-05-15T10:07:28.648Z,75.68
2023-05-15T10:09:56.334Z,91.65
2023-05-15T10:12:24.933Z,118.73
2023-05-15T10:14:55.828Z,129.61
2023-05-15T10:17:23.699Z,168.78
2023-05-15T10:19:58.383Z,202.18
2023-05-15T10:22:30.908Z,163.79
2023-05-15T10:25:07.953Z,188.80
2023-05-15T10:27:40.257Z,184.75
2023-05-15T10:30:11.063Z,192.46
2023-05-15T10:32:40.305Z,168.55
2023-05-15T10:35:10.390Z,196.34
2023-05-15T10:37:42.970Z,146.86
2023-05-15T10:40:12.881Z,127.88
2023-05-15T10:42:43.000Z,100.91
2023-05-15T10:45:13.528Z,104.45
2023-05-15T10:47:48.105Z,92.82
2023-05-15T10:50:15.962Z,91.84
2023-05-15T10:52:45.489Z,85.44
2023-05-15T10:55:20.008Z,80.06
2023-05-15T10:57:48.684Z,78.41
2023-05-15T11:00:28.149Z,63.12
2023-05-15T11:02:56.833Z,62.60
2023-05-15T11:05:25.518Z,64.67
2023-05-15T11:08:25.570Z,65.44
2023-05-15T11:10:53.339Z,72.20
2023-05-15T11:13:21.274Z,83.80
2023-05-15T11:15:49.195Z,85.71
2023-05-15T11:18:17.986Z,76.29
2023-05-15T11:21:06.568Z,66.02
2023-05-15T11:23:41.673Z,58.88
2023-05-15T11:26:09.540Z,51.45
2023-05-15T11:28:43.196Z,46.19
2023-05-15T11:31:11.007Z,50.50
2023-05-15T11:33:39.333Z,43.97
2023-05-15T11:36:10.432Z,56.14
2023-05-15T11:38:41.072Z,56.91
2023-05-15T11:41:20.081Z,49.82
2023-05-15T11:43:48.197Z,57.81
2023-05-15T11:46:16.972Z,61.20
2023-05-15T11:48:46.924Z,63.24
2023-05-15T11:51:18.006Z,65.77
2023-05-15T11:53:50.516Z,65.71
2023-05-15T11:56:19.278Z,50.70
2023-05-15T11:58:49.042Z,49.84
2023-05-15T12:01:17.252Z,52.50
2023-05-15T12:03:48.172Z,63.78
2023-05-15T12:06:16.549Z,75.41
2023-05-15T12:08:44.602Z,66.79
2023-05-15T12:11:13.605Z,71.59
2023-05-15T12:13:41.272Z,66.17
2023-05-15T12:16:08.950Z,78.84
2023-05-15T12:18:36.760Z,67.51
2023-05-15T12:21:04.647Z,86.12
2023-05-15T12:23:32.459Z,67.24
2023-05-15T12:26:02.578Z,70.11
2023-05-15T12:28:35.540Z,45.56
2023-05-15T12:31:03.845Z,36.29
2023-05-15T12:33:31.862Z,30.42
2023-05-15T12:36:01.529Z,43.83
2023-05-15T12:38:30.131Z,39.22
2023-05-15T12:40:58.231Z,46.47
2023-05-15T12:43:26.764Z,40.51
2023-05-15T12:45:56.819Z,28.30
2023-05-15T12:48:31.304Z,31.00
2023-05-15T12:51:05.443Z,31.50
2023-05-15T12:53:33.249Z,27.82
2023-05-15T12:56:01.232Z,25.46
2023-05-15T12:58:29.428Z,28.23
2023-05-15T13:00:58.971Z,47.29
2023-05-15T13:03:26.806Z,52.87
2023-05-15T13:05:55.033Z,53.68
2023-05-15T13:08:25.177Z,58.55
2023-05-15T13:10:58.267Z,67.49
2023-05-15T13:13:41.227Z,56.86
2023-05-15T13:16:20.220Z,54.35
2023-05-15T13:18:48.661Z,65.09
2023-05-15T13:21:17.481Z,64.12
2023-05-15T13:23:45.200Z,63.26
2023-05-15T13:26:12.990Z,58.67
2023-05-15T13:28:40.645Z,74.03
2023-05-15T13:31:08.417Z,97.03
2023-05-15T13:33:37.542Z,142.10
2023-05-15T13:36:05.846Z,179.51
2023-05-15T13:38:35.002Z,167.16
2023-05-15T13:41:03.908Z,169.85
2023-05-15T13:43:31.630Z,159.49
2023-05-15T13:45:59.292Z,156.81
2023-05-15T13:48:26.979Z,158.82
2023-05-15T13:50:56.063Z,156.65
2023-05-15T13:53:23.718Z,195.23
2023-05-15T13:55:51.318Z,144.64
2023-05-15T13:58:18.929Z,125.36
2023-05-15T14:00:48.387Z,102.90
2023-05-15T14:03:16.561Z,70.09
2023-05-15T14:05:44.298Z,64.66
2023-05-15T14:08:13.385Z,64.50
2023-05-15T14:10:40.995Z,70.11
2023-05-15T14:13:08.675Z,60.97
2023-05-15T14:15:36.512Z,68.93
2023-05-15T14:18:04.227Z,75.97
2023-05-15T14:20:31.932Z,87.28
2023-05-15T14:22:59.530Z,86.81
2023-05-15T14:25:28.509Z,86.39
2023-05-15T14:27:56.164Z,74.59
2023-05-15T14:30:23.829Z,65.40
2023-05-15T14:32:51.932Z,57.97
2023-05-15T14:35:20.019Z,66.93
2023-05-15T14:37:48.281Z,68.22
2023-05-15T14:40:16.145Z,54.17
2023-05-15T14:42:47.240Z,52.95
2023-05-15T14:45:14.925Z,55.14
2023-05-15T14:47:42.763Z,59.25
2023-05-15T14:50:10.525Z,55.21
2023-05-15T14:52:38.272Z,56.59
2023-05-15T14:55:14.553Z,54.96
2023-05-15T14:57:42.557Z,50.31
2023-05-15T15:00:13.587Z,56.04
2023-05-15T15:02:41.259Z,62.63
2023-05-15T15:05:10.187Z,62.82
2023-05-15T15:07:59.626Z,52.57
2023-05-15T15:10:30.316Z,55.45
2023-05-15T15:12:58.864Z,60.65
2023-05-15T15:15:29.035Z,64.36
2023-05-15T15:17:58.126Z,57.94
2023-05-15T15:20:28.641Z,55.50
2023-05-15T15:22:56.416Z,64.03
2023-05-15T15:25:24.836Z,58.60
2023-05-15T15:27:52.745Z,59.61
2023-05-15T15:30:20.530Z,66.09
2023-05-15T15:32:49.833Z,72.55
2023-05-15T15:35:17.827Z,62.62
2023-05-15T15:37:45.523Z,78.61
2023-05-15T15:40:13.339Z,66.84
2023-05-15T15:42:40.923Z,72.67
2023-05-15T15:45:08.837Z,74.54
2023-05-15T15:47:36.538Z,62.61
2023-05-15T15:50:06.488Z,80.37
2023-05-15T15:52:34.260Z,81.07
2023-05-15T15:55:02.103Z,73.57
2023-05-15T15:57:30.062Z,64.95
2023-05-15T15:59:58.877Z,63.70
2023-05-15T16:02:26.592Z,54.24
2023-05-15T16:04:54.214Z,66.12
2023-05-15T16:07:27.834Z,72.00
2023-05-15T16:10:10.722Z,70.76
2023-05-15T16:12:40.888Z,72.14
2023-05-15T16:15:21.630Z,84.07
2023-05-15T16:17:52.589Z,101.98
2023-05-15T16:20:20.665Z,109.11
2023-05-15T16:22:50.031Z,90.62
2023-05-15T16:25:17.811Z,85.97
2023-05-15T16:27:45.488Z,122.01
2023-05-15T16:30:14.313Z,92.94
2023-05-15T16:32:42.189Z,75.70
2023-05-15T16:35:09.840Z,107.46
2023-05-15T16:37:37.518Z,95.20
2023-05-15T16:40:08.222Z,87.40
2023-05-15T16:42:37.207Z,87.21
2023-05-15T16:45:06.278Z,79.76
2023-05-15T16:47:33.930Z,86.33
2023-05-15T16:50:01.620Z,72.44
2023-05-15T16:52:29.259Z,72.09
2023-05-15T16:54:56.891Z,65.57
2023-05-15T16:57:28.172Z,73.76
2023-05-15T16:59:55.870Z,69.61
2023-05-15T17:02:23.592Z,75.65
2023-05-15T17:04:51.465Z,80.31
2023-05-15T17:07:19.131Z,85.88
2023-05-15T17:09:46.873Z,86.92
2023-05-15T17:12:14.497Z,85.41
2023-05-15T17:14:43.467Z,92.76
2023-05-15T17:17:11.035Z,85.54
2023-05-15T17:19:38.884Z,78.29
2023-05-15T17:22:06.952Z,74.18
2023-05-15T17:24:49.400Z,72.26
2023-05-15T17:27:19.098Z,72.89
2023-05-15T17:29:48.291Z,63.52
2023-05-15T17:32:16.426Z,65.06
2023-05-15T17:34:44.569Z,71.03
2023-05-15T17:37:13.264Z,70.74
2023-05-15T17:39:40.963Z,78.23
2023-05-15T17:42:08.695Z,77.04
2023-05-15T17:44:36.264Z,71.51
2023-05-15T17:47:05.518Z,70.06
2023-05-15T17:49:33.210Z,61.28
2023-05-15T17:52:00.817Z,64.28
2023-05-15T17:54:28.723Z,63.34
2023-05-15T17:56:56.442Z,61.97
2023-05-15T17:59:24.448Z,65.06
2023-05-15T18:01:52.070Z,60.09
2023-05-15T18:04:23.484Z,56.77
2023-05-15T18:06:51.404Z,60.71
2023-05-15T18:09:19.962Z,62.38
2023-05-15T18:11:48.372Z,67.54
2023-05-15T18:14:16.043Z,69.00
2023-05-15T18:16:43.724Z,85.23
2023-05-15T18:19:11.488Z,93.96
2023-05-15T18:21:40.582Z,107.45
2023-05-15T18:24:08.293Z,101.08
2023-05-15T18:26:35.966Z,112.93
2023-05-15T18:29:03.534Z,117.22
2023-05-15T18:31:31.296Z,114.98
2023-05-15T18:34:01.285Z,97.81
2023-05-15T18:36:28.927Z,99.05
2023-05-15T18:38:57.912Z,84.68
2023-05-15T18:41:25.685Z,90.48
2023-05-15T18:43:53.356Z,76.43
2023-05-15T18:46:20.886Z,89.47
2023-05-15T18:48:48.866Z,98.66
2023-05-15T18:51:16.523Z,89.99
2023-05-15T18:53:44.202Z,90.83
2023-05-15T18:56:13.243Z,88.81
2023-05-15T18:58:40.919Z,89.84
2023-05-15T19:01:08.599Z,96.38
2023-05-15T19:03:36.301Z,76.64
2023-05-15T19:06:04.125Z,73.33
2023-05-15T19:08:32.904Z,80.71
2023-05-15T19:11:01.657Z,64.68
2023-05-15T19:13:30.775Z,66.87
2023-05-15T19:15:58.689Z,71.38
2023-05-15T19:18:26.319Z,70.62
2023-05-15T19:20:56.235Z,75.39
2023-05-15T19:23:23.906Z,86.00
2023-05-15T19:25:51.504Z,82.79
2023-05-15T19:28:19.083Z,72.20
2023-05-15T19:30:48.156Z,64.11
2023-05-15T19:33:16.022Z,71.06
2023-05-15T19:35:43.814Z,66.36
2023-05-15T19:38:11.467Z,71.07
2023-05-15T19:40:42.639Z,70.89
2023-05-15T19:43:10.192Z,72.23
2023-05-15T19:45:39.657Z,66.05
2023-05-15T19:48:09.330Z,69.59
2023-05-15T19:50:39.030Z,67.98
2023-05-15T19:53:09.627Z,63.30
2023-05-15T19:55:39.949Z,62.68
2023-05-15T19:58:07.721Z,55.81
2023-05-15T20:00:35.491Z,71.90
2023-05-15T20:03:03.393Z,71.56
2023-05-15T20:05:32.396Z,77.38
2023-05-15T20:08:00.165Z,77.29
2023-05-15T20:10:27.878Z,75.60
2023-05-15T20:12:55.722Z,58.09
2023-05-15T20:15:23.807Z,80.90
2023-05-15T20:17:51.403Z,76.75
2023-05-15T20:20:19.051Z,80.00
2023-05-15T20:22:47.988Z,76.17
2023-05-15T20:25:15.548Z,86.72
2023-05-15T20:27:43.297Z,91.04
2023-05-15T20:30:11.647Z,99.37
2023-05-15T20:32:39.538Z,110.78
2023-05-15T20:35:08.453Z,139.94
2023-05-15T20:37:36.088Z,114.00
2023-05-15T20:40:07.162Z,135.58
2023-05-15T20:42:34.799Z,143.21
2023-05-15T20:45:02.442Z,117.59
2023-05-15T20:47:30.556Z,139.14
2023-05-15T20:49:58.369Z,126.02
2023-05-15T20:52:26.065Z,119.23
2023-05-15T20:54:53.713Z,144.02
2023-05-15T20:57:22.852Z,361.98
2023-05-15T20:59:50.424Z,165.53
2023-05-15T21:02:18.090Z,154.55
2023-05-15T21:04:45.675Z,121.92
2023-05-15T21:07:13.642Z,157.58
2023-05-15T21:09:41.276Z,149.93
2023-05-15T21:12:09.319Z,141.58
2023-05-15T21:14:38.326Z,141.04
2023-05-15T21:17:06.154Z,166.46
2023-05-15T21:19:33.877Z,103.37
2023-05-15T21:22:01.574Z,98.40
2023-05-15T21:24:29.188Z,130.67
2023-05-15T21:26:56.757Z,128.09
2023-05-15T21:29:24.407Z,105.48
2023-05-15T21:31:53.400Z,112.87
2023-05-15T21:34:20.977Z,115.14
2023-05-15T21:36:48.679Z,151.40
2023-05-15T21:39:16.276Z,130.62
2023-05-15T21:41:43.821Z,132.49
2023-05-15T21:44:11.423Z,115.27
2023-05-15T21:46:39.147Z,98.30
2023-05-15T21:49:08.148Z,115.84
2023-05-15T21:51:35.741Z,102.17
2023-05-15T21:54:03.527Z,102.63
2023-05-15T21:56:31.090Z,109.30
2023-05-15T21:58:58.725Z,145.48
2023-05-15T22:01:26.553Z,240.24
2023-05-15T22:03:54.210Z,203.97
2023-05-15T22:06:23.496Z,198.45
2023-05-15T22:08:51.183Z,117.83
2023-05-15T22:11:19.147Z,120.53
2023-05-15T22:13:46.858Z,113.08
2023-05-15T22:16:14.545Z,105.38
2023-05-15T22:18:42.334Z,104.94
2023-05-15T22:21:10.041Z,111.31
2023-05-15T22:23:39.094Z,142.99
2023-05-15T22:26:06.834Z,134.21
2023-05-15T22:28:34.565Z,122.88
2023-05-15T22:31:02.872Z,149.55
2023-05-15T22:33:30.570Z,120.84
2023-05-15T22:35:58.136Z,120.65
2023-05-15T22:38:25.808Z,117.32
2023-05-15T22:40:54.789Z,102.20
2023-05-15T22:43:22.545Z,93.24
2023-05-15T22:45:50.220Z,93.37
2023-05-15T22:48:18.438Z,77.63
2023-05-15T22:50:46.022Z,94.71
2023-05-15T22:53:13.588Z,84.22
2023-05-15T22:55:41.672Z,83.36
2023-05-15T22:58:10.580Z,87.40
2023-05-15T23:00:38.306Z,93.08
2023-05-15T23:03:05.966Z,74.81
2023-05-15T23:05:33.822Z,79.23
2023-05-15T23:08:01.385Z,79.98
2023-05-15T23:10:29.237Z,71.87
2023-05-15T23:12:57.102Z,74.23
2023-05-15T23:15:26.081Z,85.89
2023-05-15T23:17:53.942Z,77.79
2023-05-15T23:20:21.658Z,84.55
2023-05-15T23:22:49.221Z,68.76
2023-05-15T23:25:17.252Z,75.52
2023-05-15T23:27:45.867Z,77.41
2023-05-15T23:30:14.551Z,73.81
2023-05-15T23:32:43.614Z,83.40
2023-05-15T23:35:11.298Z,85.72
2023-05-15T23:37:38.843Z,92.26
2023-05-15T23:40:07.446Z,89.42
2023-05-15T23:42:34.992Z,99.63
2023-05-15T23:45:02.808Z,117.09
2023-05-15T23:47:30.556Z,116.00
2023-05-15T23:50:02.424Z,144.79
2023-05-15T23:52:30.385Z,161.01
2023-05-15T23:54:57.932Z,208.31
2023-05-15T23:57:25.522Z,164.09
2023-05-15T23:59:53.163Z,120.02
